METAR Data
IDs: Format: Raw Decoded Include TAF

Data at: 1647 UTC 24 Aug 2019

PAWG 241624Z VRB03KT 8SM -RA BKN011 OVC022 13/12 A2968 RMK AO2 CIG 008V013 P0004
PAWG 241615Z VRB03KT 5SM -RA BR SCT011 SCT018 OVC022 13/12 A2967 RMK AO2 P0003
PAWG 241605Z 09004KT 2 1/2SM RA BR FEW004 SCT010 OVC022 13/12 A2967 RMK AO2 VIS 2V3 P0002
PAWG 241556Z 13004KT 3SM RA BR FEW004 BKN015 OVC038 13/12 A2967 RMK AO2 SLP047 P0007 T01280122
PAWG 241543Z 00000KT 3SM RA BR FEW004 BKN014 OVC039 13/12 A2966 RMK AO2 P0005
PAWG 241533Z 13006KT 5SM RA BR SCT017 BKN023 OVC048 13/12 A2966 RMK AO2 P0004
PAWG 241521Z VRB05KT 5SM RA BR FEW016 BKN035 OVC048 13/12 A2965 RMK AO2 P0002
PAWG 241456Z 09011KT 5SM -RA BR BKN025 OVC060 13/12 A2964
PAWG 241413Z 12005KT 10SM FEW008 BKN027 OVC037 13/12 A2964 RMK AO2 RAE07 P0000
PAWG 241356Z 09011KT 9SM -RA BKN027 OVC035 13/12 A2963
PAWG 241303Z AUTO VRB05KT 5SM -RA BR FEW009 BKN014 OVC029 13/12 A2962 RMK AO2 P0000 TSNO
PAWG 241246Z AUTO VRB04KT 6SM -RA BR FEW011 BKN028 OVC036 13/12 A2962 RMK AO2 P0001 TSNO
PAWG 241156Z AUTO 22003KT 10SM -RA OVC038 13/12 A2961 RMK AO2 RAE07B53 SLP026 P0000 60000 70031 T01330117 10144 20122 51005 TSNO
PAWG 241056Z AUTO 07008KT 10SM -RA OVC042 13/12 A2960 RMK AO2 RAB15 SLP024 P0000 T01280117 TSNO
PAWG 240921Z AUTO VRB06KT 10SM -RA FEW009 OVC050 13/11 A2960 RMK AO2 P0000 TSNO
PAWG 240856Z AUTO VRB03KT 10SM -RA BKN055 OVC070 13/11 A2959 RMK AO2 RAE22B44 SLP021 P0000 60000 T01280111 401500111 53002 TSNO
PAWG 240756Z AUTO 11012G18KT 10SM -RA OVC055 14/11 A2959 RMK AO2 RAE01B30 SLP019 P0000 T01440106 TSNO
PAWG 240656Z AUTO 12010G15KT 10SM -RA FEW016 BKN034 OVC049 14/11 A2958 RMK AO2 RAB26 SLP018 P0000 T01390106 TSNO
PAWG 240556Z 07007KT 10SM FEW016 BKN034 OVC049 14/11 A2958 RMK AO2 SLP019 60000 T01390111 10150 20133 53011
PAWG 240456Z 09008KT 10SM FEW015 BKN042 OVC049 13/12 A2957 RMK AO2 RAB07E53 SLP013 P0000 T01330122
PAWG 240356Z VRB03KT 10SM FEW010 BKN038 OVC055 14/12 A2956 RMK AO2 SLP011 T01390122
PAWG 240256Z VRB06KT 10SM FEW007 BKN033 OVC040 13/12 A2955 RMK AO2 RAE02 SLP008 P0000 60000 T01330122 51007
PAWG 240156Z 00000KT 10SM -RA FEW007 BKN033 OVC040 14/12 A2955 RMK AO2 RAB40 SLP007 P0000 T01440122
PAWG 240056Z 11010KT 9SM FEW006 BKN038 OVC055 14/12 A2954 RMK AO2 SLP002 T01390117
PAWG 232356Z 08013KT 10SM FEW006 BKN038 OVC055 14/12 A2953 RMK AO2 RAE10 SLP001 P0000 60012 T01390117 10144 20122 51005
PAWG 232256Z 09011KT 10SM -RA FEW006 BKN038 OVC055 13/12 A2953
PAWG 232156Z 12014G20KT 7SM -RA FEW012 BKN042 OVC070 14/11 A2953 RMK AO2 SLP999 P0002 T01390111
PAWG 232056Z 12016G20KT 8SM -RA BKN025 OVC050 14/11 A2952
PAWG 231956Z 09008KT 10SM -RA FEW012 BKN035 OVC060 13/11 A2953 RMK AO2 SLP999 P0002 T01330111
PAWG 231856Z 10008KT 10SM -RA FEW010 BKN030 OVC045 13/11 A2953 RMK AO2 SLP001 P0004 T01330111
PAWG 231756Z 09007KT 10SM -RA BKN033 BKN043 OVC055 12/11 A2955 RMK AO2 SLP007 P0001 60019 T01220111 10133 20111 55005
PAWG 231656Z 09010G17KT 10SM -RA BKN033 BKN043 OVC055 13/11 A2954 RMK AO2 RAE1558B35 SLP005 P0001 T01280106
PAWG 231556Z 14010KT 10SM -RA FEW018 BKN033 OVC043 13/10 A2956 RMK AO2 SLP011 P0001 T01280100
PAWG 231456Z 06009G16KT 7SM RA FEW018 OVC033 12/11 A2956
PAWG 231356Z VRB04KT 7SM RA OVC033 11/10 A2958 RMK AO2 SLP015 P0008 T01110100
PAWG 231256Z AUTO 07008KT 10SM -RA OVC038 12/10 A2958 RMK AO2 SLP018 P0000 T01220100 TSNO
PAWG 231156Z AUTO 09009KT 050V120 10SM -RA OVC036 12/09 A2960 RMK AO2 SLP023 P0001 60015 70063 T01220094 10122 20111 57015 TSNO
PAWG 231056Z AUTO 12014G18KT 10SM -RA BKN040 OVC050 12/09 A2961 RMK AO2 SLP027 P0002 T01220094 TSNO
PAWG 230856Z AUTO 12013G19KT 8SM RA FEW048 OVC070 11/09 A2964 RMK AO2 SLP038 P0003 60011 T01110089 401330106 58013 TSNO
PAWG 230656Z AUTO 11010G19KT 10SM RA FEW036 SCT047 OVC055 11/08 A2967 RMK AO2 SLP047 P0002 T01110083 TSNO
PAWG 230556Z 10012G20KT 10SM -RA FEW038 OVC060 11/08 A2968 RMK AO2 RAB11 SLP050 P0000 60034 T01110083 10117 20111 56028
PAWG 230456Z 10011G20KT 10SM SCT039 BKN050 OVC070 11/09 A2971 RMK AO2 RAE50 SLP062 P0002 T01110089